createdAt,value
2023-05-22T00:01:30.035Z,101009.06
2023-05-22T00:03:57.247Z,101011.47
2023-05-22T00:06:24.943Z,101005.69
2023-05-22T00:08:52.225Z,100997.06
2023-05-22T00:11:19.488Z,101004.81
2023-05-22T00:13:46.750Z,100996.44
2023-05-22T00:16:14.017Z,100994.56
2023-05-22T00:18:42.363Z,100997.00
2023-05-22T00:21:10.769Z,101005.72
2023-05-22T00:23:38.184Z,101003.25
2023-05-22T00:26:05.596Z,101001.59
2023-05-22T00:28:32.792Z,101000.63
2023-05-22T00:31:00.097Z,101002.34
2023-05-22T00:33:27.396Z,100998.13
2023-05-22T00:35:54.656Z,100997.28
2023-05-22T00:38:36.617Z,100994.63
2023-05-22T00:41:06.410Z,100988.66
2023-05-22T00:43:34.169Z,100992.13
2023-05-22T00:46:01.871Z,100985.31
2023-05-22T00:48:29.073Z,100979.50
2023-05-22T00:50:58.707Z,100987.03
2023-05-22T00:53:28.261Z,100977.59
2023-05-22T00:55:58.941Z,100976.13
2023-05-22T00:58:27.226Z,100978.59
2023-05-22T01:00:55.603Z,100983.50
2023-05-22T01:03:26.868Z,100982.78
2023-05-22T01:05:55.756Z,100975.97
2023-05-22T01:08:23.317Z,100983.69
2023-05-22T01:11:04.265Z,100975.06
2023-05-22T01:13:57.865Z,100976.97
2023-05-22T01:16:32.399Z,100981.69
2023-05-22T01:19:36.296Z,100986.13
2023-05-22T01:22:28.835Z,100974.25
2023-05-22T01:25:21.154Z,100978.41
2023-05-22T01:28:01.144Z,100977.50
2023-05-22T01:31:08.106Z,100976.56
2023-05-22T01:33:49.018Z,100982.66
2023-05-22T01:36:22.488Z,100976.88
2023-05-22T01:38:51.798Z,100982.88
2023-05-22T01:41:19.202Z,100970.91
2023-05-22T01:43:46.924Z,100977.75
2023-05-22T01:46:14.155Z,100978.41
2023-05-22T01:48:41.465Z,100978.38
2023-05-22T01:51:23.764Z,100976.78
2023-05-22T01:54:09.469Z,100980.72
2023-05-22T01:56:49.473Z,100975.13
2023-05-22T01:59:30.885Z,100978.06
2023-05-22T02:02:04.803Z,100974.78
2023-05-22T02:04:38.564Z,100971.31
2023-05-22T02:07:07.301Z,100974.47
2023-05-22T02:09:37.253Z,100970.47
2023-05-22T02:12:05.760Z,100966.19
2023-05-22T02:14:34.021Z,100966.06
2023-05-22T02:17:02.134Z,100966.88
2023-05-22T02:19:29.464Z,100965.06
2023-05-22T02:21:56.751Z,100959.53
2023-05-22T02:24:23.955Z,100955.13
2023-05-22T02:26:51.460Z,100949.16
2023-05-22T02:29:18.677Z,100953.53
2023-05-22T02:31:45.901Z,100949.34
2023-05-22T02:34:13.156Z,100948.19
2023-05-22T02:36:41.324Z,100947.25
2023-05-22T02:39:08.859Z,100945.09
2023-05-22T02:41:36.025Z,100946.25
2023-05-22T02:44:03.243Z,100946.38
2023-05-22T02:46:30.454Z,100944.78
2023-05-22T02:48:57.696Z,100939.56
2023-05-22T02:51:24.899Z,100941.41
2023-05-22T02:53:53.259Z,100949.09
2023-05-22T02:56:22.019Z,100948.13
2023-05-22T02:58:49.239Z,100948.00
2023-05-22T03:01:16.470Z,100947.84
2023-05-22T03:03:43.854Z,100946.28
2023-05-22T03:06:11.306Z,100937.03
2023-05-22T03:08:41.593Z,100926.00
2023-05-22T03:11:09.314Z,100940.84
2023-05-22T03:13:36.597Z,100937.72
2023-05-22T03:16:04.009Z,100929.91
2023-05-22T03:18:31.239Z,100937.53
2023-05-22T03:20:58.550Z,100934.88
2023-05-22T03:23:25.878Z,100934.91
2023-05-22T03:25:53.057Z,100933.94
2023-05-22T03:28:20.312Z,100947.88
2023-05-22T03:30:47.606Z,100942.72
2023-05-22T03:33:14.868Z,100944.50
2023-05-22T03:35:44.503Z,100946.03
2023-05-22T03:38:11.677Z,100942.44
2023-05-22T03:40:39.103Z,100942.75
2023-05-22T03:43:06.534Z,100945.13
2023-05-22T03:45:33.818Z,100940.16
2023-05-22T03:48:01.018Z,100940.06
2023-05-22T03:50:28.245Z,100940.75
2023-05-22T03:52:55.398Z,100931.75
2023-05-22T03:55:22.601Z,100937.41
2023-05-22T03:57:49.795Z,100940.22
2023-05-22T04:00:19.587Z,100928.94
2023-05-22T04:02:46.969Z,100940.84
2023-05-22T04:05:14.521Z,100937.66
2023-05-22T04:07:41.742Z,100936.84
2023-05-22T04:10:09.416Z,100932.69
2023-05-22T04:12:36.685Z,100930.72
2023-05-22T04:15:04.257Z,100942.44
2023-05-22T04:17:33.606Z,100929.94
2023-05-22T04:20:00.970Z,100930.00
2023-05-22T04:22:30.797Z,100930.22
2023-05-22T04:24:58.086Z,100931.75
2023-05-22T04:27:26.351Z,100934.03
2023-05-22T04:29:53.656Z,100935.91
2023-05-22T04:32:23.720Z,100935.66
2023-05-22T04:34:51.086Z,100937.00
2023-05-22T04:37:20.172Z,100932.41
2023-05-22T04:39:47.836Z,100933.22
2023-05-22T04:42:16.008Z,100941.88
2023-05-22T04:44:43.557Z,100935.88
2023-05-22T04:47:14.581Z,100937.81
2023-05-22T04:49:45.610Z,100931.06
2023-05-22T04:52:12.818Z,100937.97
2023-05-22T04:54:40.117Z,100934.47
2023-05-22T04:57:07.384Z,100934.56
2023-05-22T04:59:40.085Z,100946.16
2023-05-22T05:02:07.327Z,100939.34
2023-05-22T05:04:34.757Z,100941.31
2023-05-22T05:07:03.528Z,100942.22
2023-05-22T05:09:30.920Z,100932.84
2023-05-22T05:11:58.409Z,100937.91
2023-05-22T05:14:25.942Z,100937.22
2023-05-22T05:16:53.262Z,100934.50
2023-05-22T05:19:23.473Z,100938.06
2023-05-22T05:21:50.810Z,100931.97
2023-05-22T05:24:18.359Z,100933.81
2023-05-22T05:26:45.676Z,100924.44
2023-05-22T05:29:13.015Z,100928.00
2023-05-22T05:31:40.326Z,100928.00
2023-05-22T05:34:07.631Z,100935.41
2023-05-22T05:36:35.648Z,100926.53
2023-05-22T05:39:02.901Z,100928.28
2023-05-22T05:41:30.118Z,100931.34
2023-05-22T05:43:59.929Z,100930.72
2023-05-22T05:46:27.321Z,100924.44
2023-05-22T05:48:54.705Z,100928.50
2023-05-22T05:51:22.142Z,100928.25
2023-05-22T05:53:49.633Z,100930.97
2023-05-22T05:56:16.837Z,100925.16
2023-05-22T05:58:44.047Z,100920.84
2023-05-22T06:01:11.796Z,100928.63
2023-05-22T06:03:39.231Z,100932.38
2023-05-22T06:06:07.338Z,100932.63
2023-05-22T06:08:34.654Z,100931.84
2023-05-22T06:11:02.401Z,100928.16
2023-05-22T06:13:29.625Z,100919.28
2023-05-22T06:15:59.538Z,100919.44
2023-05-22T06:18:28.461Z,100928.53
2023-05-22T06:20:58.803Z,100919.53
2023-05-22T06:23:26.326Z,100920.44
2023-05-22T06:25:54.027Z,100922.19
2023-05-22T06:28:21.316Z,100920.59
2023-05-22T06:30:48.764Z,100921.31
2023-05-22T06:33:16.615Z,100927.13
2023-05-22T06:35:43.874Z,100927.41
2023-05-22T06:38:11.059Z,100918.91
2023-05-22T06:40:38.399Z,100929.94
2023-05-22T06:43:05.709Z,100926.66
2023-05-22T06:45:32.946Z,100938.19
2023-05-22T06:48:00.242Z,100929.13
2023-05-22T06:50:27.467Z,100929.25
2023-05-22T06:52:54.625Z,100931.88
2023-05-22T06:55:21.873Z,100929.28
2023-05-22T06:57:49.058Z,100931.81
2023-05-22T07:02:45.575Z,100928.72
2023-05-22T07:05:12.860Z,100934.53
2023-05-22T07:07:40.067Z,100926.13
2023-05-22T07:10:07.928Z,100927.22
2023-05-22T07:12:35.117Z,100922.81
2023-05-22T07:15:02.829Z,100922.94
2023-05-22T07:17:30.133Z,100930.50
2023-05-22T07:19:57.679Z,100929.72
2023-05-22T07:22:24.879Z,100933.72
2023-05-22T07:24:52.074Z,100924.53
2023-05-22T07:27:19.291Z,100926.41
2023-05-22T07:29:46.517Z,100928.25
2023-05-22T07:32:13.766Z,100926.53
2023-05-22T07:34:40.950Z,100927.41
2023-05-22T07:37:13.116Z,100926.56
2023-05-22T07:39:40.372Z,100917.22
2023-05-22T07:42:07.800Z,100919.16
2023-05-22T07:44:35.050Z,100910.66
2023-05-22T07:47:02.408Z,100911.41
2023-05-22T07:49:29.591Z,100906.34
2023-05-22T07:51:56.826Z,100911.47
2023-05-22T07:54:24.027Z,100901.03
2023-05-22T07:56:52.890Z,100898.34
2023-05-22T07:59:21.515Z,100905.75
2023-05-22T08:01:48.773Z,100889.41
2023-05-22T08:04:16.343Z,100901.44
2023-05-22T08:06:44.448Z,100892.84
2023-05-22T08:09:12.006Z,100890.66
2023-05-22T08:11:42.098Z,100899.16
2023-05-22T08:14:09.638Z,100898.44
2023-05-22T08:16:36.909Z,100890.69
2023-05-22T08:19:07.232Z,100878.19
2023-05-22T08:21:35.708Z,100886.59
2023-05-22T08:24:02.982Z,100880.34
2023-05-22T08:26:32.096Z,100873.13
2023-05-22T08:29:00.779Z,100893.94
2023-05-22T08:31:29.233Z,100878.88
2023-05-22T08:34:02.257Z,100874.47
2023-05-22T08:36:31.649Z,100870.72
2023-05-22T08:38:58.876Z,100868.81
2023-05-22T08:41:26.246Z,100873.09
2023-05-22T08:43:53.856Z,100874.63
2023-05-22T08:46:26.376Z,100858.63
2023-05-22T08:48:57.429Z,100861.19
2023-05-22T08:51:31.368Z,100870.31
2023-05-22T08:53:59.324Z,100856.63
2023-05-22T08:56:27.852Z,100846.63
2023-05-22T08:58:59.418Z,100843.34
2023-05-22T09:01:30.872Z,100840.56
2023-05-22T09:04:04.336Z,100842.88
2023-05-22T09:06:31.776Z,100845.16
2023-05-22T09:08:59.847Z,100839.56
2023-05-22T09:11:27.092Z,100836.66
2023-05-22T09:14:08.364Z,100836.41
2023-05-22T09:16:51.489Z,100840.41
2023-05-22T09:19:19.104Z,100835.13
2023-05-22T09:21:47.737Z,100835.13
2023-05-22T09:24:15.401Z,100829.09
2023-05-22T09:26:42.625Z,100829.34
2023-05-22T09:29:09.911Z,100823.81
2023-05-22T09:31:44.470Z,100822.03
2023-05-22T09:34:15.744Z,100822.22
2023-05-22T09:36:43.744Z,100816.59
2023-05-22T09:39:11.146Z,100819.97
2023-05-22T09:41:40.171Z,100812.13
2023-05-22T09:44:13.800Z,100814.22
2023-05-22T09:46:44.122Z,100811.34
2023-05-22T09:49:14.161Z,100802.19
2023-05-22T09:51:48.032Z,100803.91
2023-05-22T09:54:17.464Z,100804.50
2023-05-22T09:56:50.193Z,100796.31
2023-05-22T09:59:26.631Z,100795.47
2023-05-22T10:01:54.383Z,100793.72
2023-05-22T10:04:23.345Z,100790.91
2023-05-22T10:06:53.979Z,100791.09
2023-05-22T10:09:30.923Z,100792.75
2023-05-22T10:12:04.386Z,100791.63
2023-05-22T10:14:34.462Z,100797.00
2023-05-22T10:17:04.781Z,100790.72
2023-05-22T10:19:33.643Z,100783.75
2023-05-22T10:22:01.853Z,100786.63
2023-05-22T10:24:29.559Z,100787.41
2023-05-22T10:26:57.722Z,100784.88
2023-05-22T10:29:37.283Z,100774.56
2023-05-22T10:32:33.830Z,100767.41
2023-05-22T10:35:37.477Z,100758.69
2023-05-22T10:38:27.669Z,100764.31
2023-05-22T10:40:56.118Z,100765.63
2023-05-22T10:43:23.639Z,100754.91
2023-05-22T10:46:06.213Z,100754.97
2023-05-22T10:48:45.666Z,100752.41
2023-05-22T10:51:23.047Z,100749.75
2023-05-22T10:54:05.458Z,100745.72
2023-05-22T10:56:38.138Z,100747.06
2023-05-22T10:59:07.798Z,100743.91
2023-05-22T11:01:37.697Z,100744.69
2023-05-22T11:04:12.137Z,100765.38
2023-05-22T11:06:43.050Z,100748.50
2023-05-22T11:09:18.734Z,100740.41
2023-05-22T11:11:47.223Z,100741.31
2023-05-22T11:14:19.570Z,100736.56
2023-05-22T11:16:46.838Z,100739.31
2023-05-22T11:19:23.248Z,100741.66
2023-05-22T11:21:51.045Z,100736.91
2023-05-22T11:24:18.985Z,100742.44
2023-05-22T11:27:07.507Z,100731.38
2023-05-22T11:29:35.620Z,100736.56
2023-05-22T11:32:03.477Z,100720.13
2023-05-22T11:34:30.714Z,100716.34
2023-05-22T11:37:01.511Z,100721.38
2023-05-22T11:39:28.785Z,100711.56
2023-05-22T11:41:56.070Z,100709.13
2023-05-22T11:44:23.270Z,100703.84
2023-05-22T11:46:51.014Z,100708.63
2023-05-22T11:49:18.403Z,100700.00
2023-05-22T11:51:48.618Z,100698.84
2023-05-22T11:54:18.656Z,100692.16
2023-05-22T11:56:46.058Z,100690.06
2023-05-22T11:59:13.472Z,100703.47
2023-05-22T12:01:40.661Z,100690.59
2023-05-22T12:04:07.953Z,100686.88
2023-05-22T12:06:35.327Z,100687.25
2023-05-22T12:09:02.986Z,100683.91
2023-05-22T12:11:36.304Z,100674.50
2023-05-22T12:14:04.747Z,100675.53
2023-05-22T12:16:36.865Z,100676.09
2023-05-22T12:19:11.835Z,100678.25
2023-05-22T12:21:39.470Z,100678.53
2023-05-22T12:24:06.796Z,100676.19
2023-05-22T12:26:34.650Z,100671.31
2023-05-22T12:29:02.682Z,100672.50
2023-05-22T12:31:36.696Z,100675.50
2023-05-22T12:34:08.433Z,100665.69
2023-05-22T12:36:39.630Z,100671.09
2023-05-22T12:39:16.990Z,100667.09
2023-05-22T12:41:47.289Z,100666.22
2023-05-22T12:44:16.355Z,100662.00
2023-05-22T12:46:43.643Z,100659.72
2023-05-22T12:49:11.192Z,100664.69
2023-05-22T12:51:38.433Z,100660.28
2023-05-22T12:54:06.064Z,100657.78
2023-05-22T12:56:33.322Z,100667.66
2023-05-22T12:59:00.771Z,100660.66
2023-05-22T13:01:28.132Z,100650.00
2023-05-22T13:03:55.507Z,100650.25
2023-05-22T13:06:22.864Z,100645.06
2023-05-22T13:08:54.063Z,100647.63
2023-05-22T13:11:23.351Z,100644.81
2023-05-22T13:13:50.990Z,100637.34
2023-05-22T13:16:18.312Z,100639.03
2023-05-22T13:18:46.148Z,100637.59
2023-05-22T13:21:13.617Z,100629.69
2023-05-22T13:23:41.227Z,100628.94
2023-05-22T13:26:08.875Z,100632.84
2023-05-22T13:28:36.056Z,100640.13
2023-05-22T13:31:03.418Z,100633.19
2023-05-22T13:33:30.936Z,100630.13
2023-05-22T13:35:58.098Z,100629.59
2023-05-22T13:38:25.351Z,100624.88
2023-05-22T13:40:52.577Z,100635.69
2023-05-22T13:43:19.844Z,100632.34
2023-05-22T13:45:47.044Z,100635.25
2023-05-22T13:48:14.331Z,100621.22
2023-05-22T13:50:41.597Z,100611.81
2023-05-22T13:53:08.789Z,100610.88
2023-05-22T13:55:36.084Z,100607.81
2023-05-22T13:58:04.029Z,100603.69
2023-05-22T14:00:31.202Z,100603.75
2023-05-22T14:02:58.534Z,100597.72
2023-05-22T14:05:25.932Z,100600.41
2023-05-22T14:07:54.173Z,100596.78
2023-05-22T14:10:21.488Z,100591.50
2023-05-22T14:12:48.711Z,100589.56
2023-05-22T14:15:18.869Z,100589.84
2023-05-22T14:17:46.842Z,100585.13
2023-05-22T14:20:14.280Z,100576.16
2023-05-22T14:22:55.992Z,100577.91
2023-05-22T14:25:24.871Z,100571.84
2023-05-22T14:27:51.964Z,100568.59
2023-05-22T14:30:19.372Z,100567.63
2023-05-22T14:32:46.938Z,100556.72
2023-05-22T14:35:16.592Z,100553.28
2023-05-22T14:37:44.333Z,100540.84
2023-05-22T14:40:11.541Z,100545.50
2023-05-22T14:42:39.141Z,100538.75
2023-05-22T14:45:06.910Z,100546.44
2023-05-22T14:47:34.173Z,100544.59
2023-05-22T14:50:14.625Z,100534.88
2023-05-22T14:52:45.929Z,100534.56
2023-05-22T14:55:13.197Z,100545.75
2023-05-22T14:57:40.370Z,100530.44
2023-05-22T15:00:12.073Z,100534.31
2023-05-22T15:02:40.340Z,100530.13
2023-05-22T15:05:08.433Z,100520.47
2023-05-22T15:07:43.936Z,100527.22
2023-05-22T15:10:12.848Z,100516.28
2023-05-22T15:12:40.162Z,100516.28
2023-05-22T15:15:08.320Z,100515.88
2023-05-22T15:17:35.574Z,100508.59
2023-05-22T15:20:04.341Z,100494.56
2023-05-22T15:22:31.600Z,100498.56
2023-05-22T15:25:07.482Z,100497.38
2023-05-22T15:27:35.751Z,100502.78
2023-05-22T15:30:04.795Z,100490.69
2023-05-22T15:32:33.098Z,100500.44
2023-05-22T15:35:00.681Z,100487.91
2023-05-22T15:37:32.402Z,100480.38
2023-05-22T15:40:01.715Z,100477.25
2023-05-22T15:42:29.921Z,100474.56
2023-05-22T15:44:59.562Z,100479.28
2023-05-22T15:47:30.319Z,100486.06
2023-05-22T15:49:57.502Z,100487.34
2023-05-22T15:52:24.894Z,100486.97
2023-05-22T15:54:52.431Z,100497.69
2023-05-22T15:57:19.864Z,100492.47
2023-05-22T15:59:50.492Z,100502.91
2023-05-22T16:02:18.502Z,100510.59
2023-05-22T16:04:45.988Z,100505.69
2023-05-22T16:07:13.344Z,100499.28
2023-05-22T16:09:43.278Z,100507.81
2023-05-22T16:12:10.608Z,100505.53
2023-05-22T16:14:39.876Z,100512.59
2023-05-22T16:17:07.532Z,100516.81
2023-05-22T16:19:34.909Z,100517.03
2023-05-22T16:22:02.955Z,100506.47
2023-05-22T16:24:30.267Z,100515.09
2023-05-22T16:26:59.827Z,100516.31
2023-05-22T16:29:27.144Z,100508.78
2023-05-22T16:31:57.054Z,100510.75
2023-05-22T16:34:24.474Z,100514.72
2023-05-22T16:36:51.666Z,100513.97
2023-05-22T16:39:18.847Z,100514.00
2023-05-22T16:41:46.018Z,100511.81
2023-05-22T16:44:13.279Z,100515.06
2023-05-22T16:46:40.655Z,100515.25
2023-05-22T16:49:07.902Z,100516.13
2023-05-22T16:51:35.086Z,100507.47
2023-05-22T16:54:02.282Z,100510.53
2023-05-22T16:56:32.718Z,100520.66
2023-05-22T16:59:00.911Z,100516.63
2023-05-22T17:01:28.304Z,100510.66
2023-05-22T17:03:55.858Z,100510.44
2023-05-22T17:06:23.149Z,100514.03
2023-05-22T17:08:50.653Z,100506.28
2023-05-22T17:11:17.812Z,100503.50
2023-05-22T17:13:44.968Z,100502.09
2023-05-22T17:16:12.205Z,100500.47
2023-05-22T17:18:39.421Z,100495.44
2023-05-22T17:21:09.079Z,100492.06
2023-05-22T17:23:37.309Z,100491.16
2023-05-22T17:26:04.724Z,100486.63
2023-05-22T17:28:32.061Z,100489.91
2023-05-22T17:30:59.342Z,100488.88
2023-05-22T17:33:26.623Z,100487.25
2023-05-22T17:35:53.832Z,100492.34
2023-05-22T17:38:21.988Z,100481.97
2023-05-22T17:40:49.550Z,100483.06
2023-05-22T17:43:18.977Z,100488.16
2023-05-22T17:45:53.165Z,100490.81
2023-05-22T17:48:26.867Z,100488.41
2023-05-22T17:50:54.117Z,100483.28
2023-05-22T17:53:21.886Z,100484.34
2023-05-22T17:55:52.373Z,100481.19
2023-05-22T17:58:21.048Z,100473.59
2023-05-22T18:00:49.021Z,100475.28
2023-05-22T18:03:20.878Z,100470.84
2023-05-22T18:05:50.134Z,100465.91
2023-05-22T18:08:18.475Z,100471.28
2023-05-22T18:10:45.708Z,100462.81
2023-05-22T18:13:12.914Z,100467.84
2023-05-22T18:15:40.728Z,100465.56
2023-05-22T18:18:08.067Z,100473.34
2023-05-22T18:20:37.754Z,100478.72
2023-05-22T18:23:05.072Z,100486.28
2023-05-22T18:25:32.257Z,100505.84
2023-05-22T18:27:59.525Z,100536.06
2023-05-22T18:30:26.727Z,100559.03
2023-05-22T18:32:54.062Z,100580.03
2023-05-22T18:35:21.426Z,100579.31
2023-05-22T18:37:48.629Z,100590.50
2023-05-22T18:40:15.949Z,100623.59
2023-05-22T18:42:46.269Z,100637.16
2023-05-22T18:45:13.502Z,100630.38
2023-05-22T18:47:41.261Z,100621.72
2023-05-22T18:50:08.887Z,100614.25
2023-05-22T18:52:36.127Z,100622.72
2023-05-22T18:55:03.779Z,100639.72
2023-05-22T18:57:30.977Z,100640.44
2023-05-22T18:59:58.841Z,100638.88
2023-05-22T19:02:26.068Z,100648.19
2023-05-22T19:04:53.475Z,100647.25
2023-05-22T19:07:21.197Z,100647.25
2023-05-22T19:09:49.651Z,100648.16
2023-05-22T19:12:16.920Z,100656.66
2023-05-22T19:14:44.268Z,100664.19
2023-05-22T19:17:12.267Z,100676.78
2023-05-22T19:19:39.754Z,100672.72
2023-05-22T19:22:07.415Z,100674.34
2023-05-22T19:24:34.661Z,100677.75
2023-05-22T19:27:01.892Z,100687.19
2023-05-22T19:29:29.072Z,100703.31
2023-05-22T19:31:56.344Z,100729.66
2023-05-22T19:34:23.539Z,100745.75
2023-05-22T19:36:52.017Z,100763.41
2023-05-22T19:39:19.208Z,100769.25
2023-05-22T19:41:47.426Z,100773.28
2023-05-22T19:44:14.932Z,100778.69
2023-05-22T19:46:42.366Z,100818.81
2023-05-22T19:49:09.930Z,100838.00
2023-05-22T19:51:40.026Z,100848.38
2023-05-22T19:54:07.248Z,100855.59
2023-05-22T19:56:35.695Z,100837.28
2023-05-22T19:59:03.027Z,100829.97
2023-05-22T20:01:30.480Z,100835.16
2023-05-22T20:03:58.048Z,100832.00
2023-05-22T20:06:26.816Z,100831.28
2023-05-22T20:08:54.083Z,100834.72
2023-05-22T20:11:21.595Z,100839.34
2023-05-22T20:13:48.905Z,100833.34
2023-05-22T20:16:16.407Z,100830.13
2023-05-22T20:18:44.564Z,100818.69
2023-05-22T20:21:11.942Z,100820.16
2023-05-22T20:23:39.918Z,100812.22
2023-05-22T20:26:07.896Z,100812.81
2023-05-22T20:28:35.183Z,100803.13
2023-05-22T20:31:02.400Z,100808.22
2023-05-22T20:33:29.608Z,100811.91
2023-05-22T20:35:58.472Z,100811.09
2023-05-22T20:38:25.922Z,100814.88
2023-05-22T20:40:53.527Z,100799.16
2023-05-22T20:43:20.990Z,100801.94
2023-05-22T20:45:48.311Z,100810.34
2023-05-22T20:48:16.563Z,100805.50
2023-05-22T20:50:43.827Z,100808.59
2023-05-22T20:53:12.285Z,100816.91
2023-05-22T20:55:39.805Z,100814.84
2023-05-22T20:58:07.251Z,100808.88
2023-05-22T21:00:34.898Z,100803.47
2023-05-22T21:03:02.162Z,100811.81
2023-05-22T21:05:29.406Z,100808.13
2023-05-22T21:07:58.017Z,100810.28
2023-05-22T21:10:25.730Z,100804.22
2023-05-22T21:12:52.960Z,100802.50
2023-05-22T21:15:20.151Z,100805.44
2023-05-22T21:17:47.407Z,100811.13
2023-05-22T21:20:14.615Z,100814.03
2023-05-22T21:22:41.850Z,100816.28
2023-05-22T21:25:09.638Z,100819.97
2023-05-22T21:27:36.816Z,100818.72
2023-05-22T21:30:04.296Z,100813.88
2023-05-22T21:32:31.501Z,100814.28
2023-05-22T21:34:58.711Z,100808.47
2023-05-22T21:37:25.909Z,100806.00
2023-05-22T21:39:53.088Z,100812.56
2023-05-22T21:42:21.347Z,100808.78
2023-05-22T21:44:48.708Z,100802.56
2023-05-22T21:47:16.172Z,100803.50
2023-05-22T21:49:43.370Z,100804.22
2023-05-22T21:52:10.634Z,100794.88
2023-05-22T21:54:37.875Z,100793.97
2023-05-22T21:57:05.304Z,100791.41
2023-05-22T21:59:32.549Z,100785.22
2023-05-22T22:01:59.776Z,100777.59
2023-05-22T22:04:27.057Z,100786.25
2023-05-22T22:06:54.263Z,100780.69
2023-05-22T22:09:21.466Z,100789.56
2023-05-22T22:11:48.773Z,100792.50
2023-05-22T22:14:16.062Z,100780.56
2023-05-22T22:16:44.348Z,100779.59
2023-05-22T22:19:11.678Z,100769.72
2023-05-22T22:21:39.078Z,100762.03
2023-05-22T22:24:06.396Z,100769.47
2023-05-22T22:26:33.609Z,100767.03
2023-05-22T22:29:00.799Z,100759.28
2023-05-22T22:31:28.032Z,100753.09
2023-05-22T22:33:55.283Z,100755.88
2023-05-22T22:36:22.833Z,100754.06
2023-05-22T22:38:50.817Z,100755.97
2023-05-22T22:41:18.078Z,100748.31
2023-05-22T22:43:45.911Z,100743.34
2023-05-22T22:46:13.838Z,100741.69
2023-05-22T22:48:41.713Z,100736.56
2023-05-22T22:51:09.634Z,100741.25
2023-05-22T22:53:37.209Z,100732.13
2023-05-22T22:56:04.975Z,100734.66
2023-05-22T22:58:32.154Z,100736.50
2023-05-22T23:00:59.365Z,100735.75
2023-05-22T23:03:27.113Z,100730.53
2023-05-22T23:05:54.418Z,100725.47
2023-05-22T23:08:21.610Z,100727.22
2023-05-22T23:10:48.800Z,100730.66
2023-05-22T23:13:16.395Z,100723.03
2023-05-22T23:15:43.969Z,100717.78
2023-05-22T23:18:13.477Z,100714.47
2023-05-22T23:20:40.754Z,100707.75
2023-05-22T23:23:07.962Z,100698.41
2023-05-22T23:25:35.185Z,100699.00
2023-05-22T23:28:02.374Z,100693.28
2023-05-22T23:30:29.586Z,100687.47
2023-05-22T23:32:56.851Z,100681.72
2023-05-22T23:35:24.483Z,100677.03
2023-05-22T23:37:51.658Z,100667.66
2023-05-22T23:40:18.938Z,100660.88
2023-05-22T23:42:46.181Z,100671.13
2023-05-22T23:45:13.402Z,100670.19
2023-05-22T23:47:40.698Z,100665.03
2023-05-22T23:50:08.253Z,100665.94
2023-05-22T23:52:35.678Z,100656.84
2023-05-22T23:55:03.289Z,100660.19
2023-05-22T23:57:30.616Z,100653.22
2023-05-22T23:59:57.772Z,100651.69
